Time;durP1;ratioP1;P1;durP2;ratioP2;P2;SDS_P1;SDS_P2;PMS_P1;PMS_P2;Temp;Humidity;BMP_temperature;BMP_pressure;BME280_temperature;BME280_humidity;BME280_pressure;Samples;Min_cycle;Max_cycle;Signal;HPM_P1;HPM_P2
2021/09/07 00:00:38;;;;;;;4.93;2.90;;;10.20;99.90;;;;;;4366985;32;20447;-62
2021/09/07 00:03:04;;;;;;;4.35;2.50;;;10.30;99.90;;;;;;4392169;32;20146;-64
2021/09/07 00:05:30;;;;;;;5.43;2.90;;;10.40;99.90;;;;;;4392616;32;20085;-63
2021/09/07 00:07:56;;;;;;;4.60;2.70;;;10.40;99.90;;;;;;4393128;32;20078;-65
2021/09/07 00:11:00;;;;;;;5.57;3.10;;;10.40;99.90;;;;;;4391702;32;20090;-64
2021/09/07 00:13:26;;;;;;;5.43;3.03;;;10.30;99.90;;;;;;4391971;32;20150;-65
2021/09/07 00:15:52;;;;;;;5.57;2.80;;;10.40;99.90;;;;;;4379235;32;20496;-64
2021/09/07 00:18:19;;;;;;;6.60;3.00;;;10.40;99.90;;;;;;4378946;32;20085;-65
2021/09/07 00:20:45;;;;;;;6.12;3.00;;;10.40;99.90;;;;;;4391324;32;20078;-64
2021/09/07 00:23:11;;;;;;;7.30;3.25;;;10.30;99.90;;;;;;4393774;32;20066;-64
2021/09/07 00:25:37;;;;;;;6.30;3.15;;;10.30;99.90;;;;;;4392191;32;20086;-65
2021/09/07 00:28:04;;;;;;;5.87;3.53;;;10.30;99.90;;;;;;4391271;32;20077;-64
2021/09/07 00:30:30;;;;;;;6.32;3.33;;;10.30;99.90;;;;;;4391892;32;20081;-65
2021/09/07 00:32:56;;;;;;;6.68;2.92;;;10.30;99.90;;;;;;4392410;32;20062;-65
2021/09/07 00:35:24;;;;;;;4.03;2.55;;;10.20;99.90;;;;;;4391843;32;20084;-64
2021/09/07 00:37:50;;;;;;;4.97;2.83;;;10.30;99.90;;;;;;4378634;32;20516;-63
2021/09/07 00:40:16;;;;;;;3.70;2.35;;;10.20;99.90;;;;;;4391656;32;20510;-64
2021/09/07 00:42:43;;;;;;;4.40;2.30;;;10.20;99.90;;;;;;4379253;32;20070;-65
2021/09/07 00:45:12;;;;;;;3.25;2.22;;;10.20;99.90;;;;;;4366375;32;20521;-65
2021/09/07 00:47:39;;;;;;;2.53;1.90;;;10.20;99.90;;;;;;4391196;32;20073;-63
2021/09/07 00:50:06;;;;;;;2.58;1.77;;;10.20;99.90;;;;;;4391068;32;20103;-64
2021/09/07 00:52:32;;;;;;;3.20;1.85;;;10.20;99.90;;;;;;4391819;32;20068;-64
2021/09/07 00:54:58;;;;;;;4.20;2.15;;;10.10;99.90;;;;;;4378517;32;20085;-65
2021/09/07 00:57:25;;;;;;;3.75;1.87;;;10.10;99.90;;;;;;4366019;32;20161;-65
2021/09/07 00:59:54;;;;;;;3.10;1.92;;;10.20;99.90;;;;;;4392537;32;20098;-64
2021/09/07 01:02:20;;;;;;;1.67;1.45;;;10.20;99.90;;;;;;4378418;32;20520;-64
2021/09/07 01:04:46;;;;;;;3.35;1.90;;;10.20;99.90;;;;;;4390972;32;20157;-65
2021/09/07 01:07:13;;;;;;;2.42;1.52;;;10.20;99.90;;;;;;4378855;32;20180;-64
2021/09/07 01:09:39;;;;;;;2.10;1.50;;;10.10;99.90;;;;;;4378821;32;20070;-63
2021/09/07 01:12:08;;;;;;;3.20;1.73;;;10.10;99.90;;;;;;4378817;32;20160;-63
2021/09/07 01:14:37;;;;;;;2.25;1.37;;;10.10;99.90;;;;;;4378808;32;20077;-64
2021/09/07 01:17:19;;;;;;;1.75;1.42;;;10.00;99.90;;;;;;4366147;32;20620;-63
2021/09/07 01:19:47;;;;;;;3.22;1.85;;;10.00;99.90;;;;;;4366185;32;20097;-62
2021/09/07 01:22:20;;;;;;;3.37;1.75;;;10.10;99.90;;;;;;4378604;32;20077;-63
2021/09/07 01:24:46;;;;;;;3.80;2.17;;;10.10;99.90;;;;;;4390960;32;20085;-64
2021/09/07 01:27:13;;;;;;;3.33;1.90;;;10.10;99.90;;;;;;4378426;32;20162;-65
2021/09/07 01:29:40;;;;;;;4.57;2.00;;;10.10;99.90;;;;;;4390320;32;20092;-64
2021/09/07 01:32:09;;;;;;;3.53;2.00;;;10.00;99.90;;;;;;4379129;32;20093;-64
2021/09/07 01:34:35;;;;;;;2.30;1.35;;;9.90;99.90;;;;;;4390662;32;20156;-65
2021/09/07 01:37:01;;;;;;;2.53;1.60;;;9.80;99.90;;;;;;4391697;32;20089;-62
2021/09/07 01:39:27;;;;;;;2.87;1.58;;;9.80;99.90;;;;;;4378545;32;20080;-65
2021/09/07 01:41:54;;;;;;;3.45;1.70;;;9.80;99.90;;;;;;4390360;32;20160;-65
2021/09/07 01:44:20;;;;;;;2.42;1.70;;;9.70;99.90;;;;;;4365616;32;20066;-64
2021/09/07 01:46:46;;;;;;;2.53;1.70;;;9.60;99.90;;;;;;4378053;32;20519;-64
2021/09/07 01:49:13;;;;;;;3.25;1.83;;;9.60;99.90;;;;;;4377579;32;20544;-64
2021/09/07 01:51:42;;;;;;;1.92;1.40;;;9.50;99.90;;;;;;4365745;32;20093;-64
2021/09/07 01:54:08;;;;;;;2.70;1.50;;;9.40;99.90;;;;;;4390829;32;20478;-64
2021/09/07 01:56:35;;;;;;;2.90;2.10;;;9.40;99.90;;;;;;4402642;32;20089;-64
2021/09/07 01:59:01;;;;;;;3.08;1.80;;;9.40;99.90;;;;;;4413223;32;20042;-64
2021/09/07 02:01:27;;;;;;;2.45;1.60;;;9.40;99.90;;;;;;4394216;32;20235;-64
2021/09/07 02:03:53;;;;;;;3.90;2.00;;;9.40;99.90;;;;;;4379755;32;20081;-64
2021/09/07 02:06:20;;;;;;;4.30;1.90;;;9.40;99.90;;;;;;4394949;32;20078;-63
2021/09/07 02:08:46;;;;;;;3.20;1.73;;;9.40;99.90;;;;;;4406092;32;20080;-64
2021/09/07 02:11:12;;;;;;;2.58;1.60;;;9.30;99.90;;;;;;4391757;32;20081;-64
2021/09/07 02:13:38;;;;;;;3.45;1.65;;;9.30;99.90;;;;;;4365924;32;20100;-65
2021/09/07 02:16:04;;;;;;;3.72;1.75;;;9.40;99.90;;;;;;4391116;32;20153;-63
2021/09/07 02:18:30;;;;;;;2.50;1.90;;;9.30;99.90;;;;;;4391241;32;20073;-64
2021/09/07 02:20:57;;;;;;;3.25;2.12;;;9.30;99.90;;;;;;4391810;32;20158;-64
2021/09/07 02:23:23;;;;;;;2.92;1.55;;;9.30;99.90;;;;;;4367739;32;20591;-64
2021/09/07 02:25:49;;;;;;;4.90;2.17;;;9.30;99.90;;;;;;4378668;32;20485;-64
2021/09/07 02:28:15;;;;;;;3.08;2.00;;;9.20;99.90;;;;;;4390839;32;20074;-64
2021/09/07 02:30:41;;;;;;;3.90;2.03;;;9.20;99.90;;;;;;4367307;32;20081;-64
2021/09/07 02:33:08;;;;;;;5.30;2.65;;;9.20;99.90;;;;;;4394105;32;20082;-63
2021/09/07 02:35:35;;;;;;;5.47;2.55;;;9.20;99.90;;;;;;4390842;32;20452;-64
2021/09/07 02:38:02;;;;;;;4.70;2.33;;;9.30;99.90;;;;;;4378488;32;20097;-65
2021/09/07 02:40:28;;;;;;;4.32;2.20;;;9.30;99.90;;;;;;4390478;32;20085;-65
2021/09/07 02:42:55;;;;;;;2.78;2.40;;;9.30;99.90;;;;;;4366435;32;20074;-65
2021/09/07 02:45:21;;;;;;;5.25;2.50;;;9.20;99.90;;;;;;4380498;32;20103;-64
2021/09/07 02:47:47;;;;;;;4.68;2.60;;;9.20;99.90;;;;;;4378682;32;20170;-64
2021/09/07 02:50:15;;;;;;;4.70;2.33;;;9.20;99.90;;;;;;4377395;32;20069;-63
2021/09/07 02:52:42;;;;;;;4.30;2.40;;;9.20;99.90;;;;;;4377674;32;20082;-65
2021/09/07 02:55:09;;;;;;;4.30;2.35;;;9.10;99.90;;;;;;4389774;32;20076;-63
2021/09/07 02:57:35;;;;;;;5.45;2.50;;;9.10;99.90;;;;;;4377865;32;20070;-64
2021/09/07 03:00:03;;;;;;;5.57;2.30;;;9.10;99.90;;;;;;4389841;32;20520;-64
2021/09/07 03:03:54;;;;;;;5.45;3.22;;;9.10;99.90;;;;;;3859016;37;20062;-65
2021/09/07 03:06:20;;;;;;;5.25;2.83;;;9.10;99.90;;;;;;4406736;32;20085;-64
2021/09/07 03:08:47;;;;;;;5.85;2.97;;;9.00;99.90;;;;;;4406307;32;20095;-65
2021/09/07 03:11:13;;;;;;;5.93;3.42;;;9.10;99.90;;;;;;4418476;32;20061;-65
2021/09/07 03:13:39;;;;;;;6.25;2.85;;;9.10;99.90;;;;;;4394184;32;20066;-64
2021/09/07 03:16:06;;;;;;;6.03;2.85;;;9.10;99.90;;;;;;4419711;32;20096;-64
2021/09/07 03:18:32;;;;;;;6.00;2.85;;;9.20;99.90;;;;;;4419825;32;20077;-64
2021/09/07 03:20:58;;;;;;;7.57;3.55;;;9.20;99.90;;;;;;4393317;32;20077;-63
2021/09/07 03:23:24;;;;;;;6.57;3.03;;;9.20;99.90;;;;;;4393049;32;20079;-63
2021/09/07 03:25:50;;;;;;;5.75;3.20;;;9.30;99.90;;;;;;4405724;32;20140;-64
2021/09/07 03:28:17;;;;;;;6.07;3.20;;;9.30;99.90;;;;;;4405467;32;20085;-64
2021/09/07 03:30:43;;;;;;;5.57;2.92;;;9.40;99.90;;;;;;4418232;32;20151;-64
2021/09/07 03:33:09;;;;;;;7.62;3.28;;;9.40;99.90;;;;;;4405516;32;20125;-64
2021/09/07 03:35:35;;;;;;;6.97;3.30;;;9.40;99.90;;;;;;4418739;32;20500;-64
2021/09/07 03:38:02;;;;;;;6.47;2.95;;;9.50;99.90;;;;;;4406431;32;20085;-66
2021/09/07 03:40:28;;;;;;;6.72;3.00;;;9.40;99.90;;;;;;4393758;32;20503;-65
2021/09/07 03:42:54;;;;;;;5.85;2.78;;;9.40;99.90;;;;;;4419018;32;20061;-62
2021/09/07 03:45:20;;;;;;;4.43;2.92;;;9.40;99.90;;;;;;4426305;32;20503;-62
2021/09/07 03:47:47;;;;;;;7.22;2.55;;;9.40;99.90;;;;;;4372366;32;20085;-63
2021/09/07 03:50:14;;;;;;;8.88;3.35;;;9.40;99.90;;;;;;4405294;32;20138;-63
2021/09/07 03:52:40;;;;;;;7.72;3.90;;;9.40;99.90;;;;;;4380384;32;20084;-64
2021/09/07 03:55:07;;;;;;;7.85;3.50;;;9.50;99.90;;;;;;4392569;32;20499;-62
2021/09/07 03:57:34;;;;;;;5.93;3.30;;;9.50;99.90;;;;;;4418227;32;20085;-65
2021/09/07 04:00:00;;;;;;;8.57;3.00;;;9.60;99.90;;;;;;4405472;32;20081;-63
2021/09/07 04:02:27;;;;;;;3.72;2.40;;;9.60;99.90;;;;;;4417708;32;20100;-64
2021/09/07 04:04:53;;;;;;;3.35;2.05;;;9.70;99.90;;;;;;4405611;32;20065;-64
2021/09/07 04:07:19;;;;;;;3.78;2.10;;;9.80;99.90;;;;;;4393457;32;20092;-62
2021/09/07 04:09:45;;;;;;;3.92;2.40;;;9.80;99.90;;;;;;4392998;32;20081;-65
2021/09/07 04:12:12;;;;;;;3.75;2.15;;;9.90;99.90;;;;;;4405591;32;20088;-64
2021/09/07 04:14:38;;;;;;;2.78;1.92;;;10.00;99.90;;;;;;4385893;32;20084;-64
2021/09/07 04:17:05;;;;;;;1.73;1.42;;;10.00;99.90;;;;;;4407473;32;20069;-65
2021/09/07 04:19:32;;;;;;;2.25;1.50;;;10.10;99.90;;;;;;4409528;32;20504;-63
2021/09/07 04:21:59;;;;;;;3.75;1.67;;;10.10;99.90;;;;;;4382617;32;20073;-65
2021/09/07 04:24:25;;;;;;;2.17;1.62;;;10.20;99.90;;;;;;4395216;32;20563;-63
2021/09/07 04:26:53;;;;;;;3.28;1.83;;;10.20;99.90;;;;;;4382326;32;20081;-64
2021/09/07 04:29:23;;;;;;;5.05;1.83;;;10.20;99.90;;;;;;4407764;32;20070;-64
2021/09/07 04:31:49;;;;;;;2.87;1.65;;;10.30;99.90;;;;;;4407227;32;20444;-63
2021/09/07 04:34:15;;;;;;;3.87;1.80;;;10.30;99.90;;;;;;4408344;32;20184;-64
2021/09/07 04:36:41;;;;;;;4.30;1.80;;;10.40;99.90;;;;;;4369539;32;20077;-64
2021/09/07 04:39:07;;;;;;;4.22;1.80;;;10.50;99.90;;;;;;4382267;32;20073;-64
2021/09/07 04:41:34;;;;;;;3.10;1.73;;;10.60;99.90;;;;;;4382098;32;20096;-64
2021/09/07 04:44:00;;;;;;;3.83;1.80;;;10.50;99.90;;;;;;4406876;32;20543;-64
2021/09/07 04:46:26;;;;;;;2.28;1.50;;;10.60;99.90;;;;;;4382019;32;20081;-64
2021/09/07 04:48:55;;;;;;;2.72;1.62;;;10.70;99.90;;;;;;4394143;32;20078;-62
2021/09/07 04:51:22;;;;;;;5.47;2.75;;;10.80;99.90;;;;;;4382441;32;20081;-64
2021/09/07 04:53:49;;;;;;;3.67;2.08;;;11.00;99.90;;;;;;4394167;32;20443;-64
2021/09/07 04:56:15;;;;;;;2.37;1.62;;;11.70;99.90;;;;;;4394654;32;20058;-64
2021/09/07 04:58:41;;;;;;;3.03;1.80;;;12.30;99.90;;;;;;4395636;32;20523;-64
2021/09/07 05:01:07;;;;;;;2.67;1.60;;;11.90;99.90;;;;;;4395174;32;20165;-64
2021/09/07 05:03:34;;;;;;;3.03;1.92;;;12.80;99.90;;;;;;4407906;32;20157;-64
2021/09/07 05:06:00;;;;;;;2.17;1.70;;;12.80;99.90;;;;;;4393947;32;20165;-64
2021/09/07 05:08:27;;;;;;;3.08;1.50;;;13.30;99.90;;;;;;4393927;32;20078;-64
2021/09/07 05:10:53;;;;;;;3.33;1.87;;;14.00;93.70;;;;;;4382424;32;20162;-63
2021/09/07 05:13:19;;;;;;;5.10;1.90;;;13.40;95.20;;;;;;4394388;32;20566;-65
2021/09/07 05:15:45;;;;;;;2.60;1.40;;;14.20;91.10;;;;;;4406705;32;20443;-65
2021/09/07 05:18:12;;;;;;;2.15;1.60;;;13.10;94.00;;;;;;4394070;32;20465;-65
2021/09/07 05:20:38;;;;;;;2.47;1.80;;;12.90;95.00;;;;;;4381405;32;20156;-64
2021/09/07 05:23:04;;;;;;;2.67;1.60;;;12.70;90.80;;;;;;4369068;32;20165;-63
2021/09/07 05:25:30;;;;;;;2.00;1.42;;;13.20;90.10;;;;;;4380723;32;20061;-64
2021/09/07 05:27:57;;;;;;;2.95;1.37;;;12.70;82.70;;;;;;4406444;32;20144;-64
2021/09/07 05:30:24;;;;;;;3.72;2.12;;;13.00;82.10;;;;;;4394200;32;20093;-64
2021/09/07 05:32:50;;;;;;;3.72;1.70;;;14.70;75.10;;;;;;4393702;32;20555;-64
2021/09/07 05:35:16;;;;;;;3.12;1.60;;;14.50;72.30;;;;;;4369128;32;20081;-63
2021/09/07 05:37:43;;;;;;;3.95;2.25;;;14.00;74.50;;;;;;4408815;32;20074;-63
2021/09/07 05:40:11;;;;;;;3.33;1.80;;;14.30;74.30;;;;;;4381583;32;20563;-64
2021/09/07 05:42:41;;;;;;;3.85;1.90;;;14.00;75.10;;;;;;4381510;32;20085;-62
2021/09/07 05:45:17;;;;;;;4.53;1.50;;;14.00;72.70;;;;;;4394242;32;20607;-64
2021/09/07 05:47:44;;;;;;;2.37;1.73;;;14.20;68.90;;;;;;4370093;32;20104;-62
2021/09/07 05:50:13;;;;;;;2.70;1.75;;;14.50;66.90;;;;;;4393824;32;20096;-62
2021/09/07 05:52:40;;;;;;;4.43;1.70;;;13.20;76.50;;;;;;4381339;32;20093;-63
2021/09/07 05:55:07;;;;;;;2.65;1.65;;;13.80;70.00;;;;;;4381096;32;20085;-63
2021/09/07 05:57:33;;;;;;;2.10;1.42;;;14.30;63.90;;;;;;4405824;32;20087;-63
2021/09/07 06:00:00;;;;;;;1.67;1.35;;;13.30;71.40;;;;;;4406300;32;20089;-64
2021/09/07 06:02:26;;;;;;;2.42;1.60;;;14.00;64.60;;;;;;4405466;32;20089;-63
2021/09/07 06:04:52;;;;;;;2.92;2.03;;;14.80;59.10;;;;;;4408536;32;20476;-65
2021/09/07 06:07:18;;;;;;;4.10;1.20;;;14.10;60.90;;;;;;4395601;32;20166;-65
2021/09/07 06:09:44;;;;;;;3.45;1.90;;;15.80;55.60;;;;;;4394293;32;20077;-63
2021/09/07 06:12:11;;;;;;;2.83;1.20;;;13.60;63.20;;;;;;4393199;32;20087;-64
2021/09/07 06:14:37;;;;;;;2.10;1.50;;;13.10;63.60;;;;;;4393811;32;20093;-63
2021/09/07 06:17:03;;;;;;;2.00;1.55;;;13.10;65.90;;;;;;4381504;32;20075;-65
2021/09/07 06:19:30;;;;;;;2.03;1.52;;;13.00;66.90;;;;;;4380535;32;20516;-63
2021/09/07 06:21:56;;;;;;;4.07;1.58;;;13.70;63.40;;;;;;4381144;32;20587;-65
2021/09/07 06:24:22;;;;;;;3.10;1.60;;;14.30;62.30;;;;;;4368581;32;20120;-64
2021/09/07 06:26:49;;;;;;;2.95;1.60;;;13.30;62.30;;;;;;4393034;32;20150;-63
2021/09/07 06:29:15;;;;;;;3.08;1.50;;;12.70;59.50;;;;;;4380603;32;20058;-64
2021/09/07 06:31:41;;;;;;;2.05;1.70;;;13.10;59.20;;;;;;4400235;32;20164;-64
2021/09/07 06:34:07;;;;;;;2.33;1.37;;;13.00;59.80;;;;;;4393568;32;20152;-63
2021/09/07 06:36:34;;;;;;;2.83;1.58;;;12.90;61.10;;;;;;4392985;32;20080;-63
2021/09/07 06:39:00;;;;;;;2.33;1.50;;;13.30;59.40;;;;;;4380275;32;20529;-64
2021/09/07 06:41:26;;;;;;;2.67;1.35;;;13.00;59.80;;;;;;4392708;32;20101;-64
2021/09/07 06:43:52;;;;;;;1.60;1.37;;;13.20;58.70;;;;;;4368107;32;20101;-64
2021/09/07 06:46:18;;;;;;;2.15;1.20;;;13.20;58.10;;;;;;4393026;32;20136;-64
2021/09/07 06:48:44;;;;;;;3.58;1.55;;;13.60;55.30;;;;;;4381185;32;20081;-63
2021/09/07 06:51:11;;;;;;;1.58;1.00;;;13.40;55.30;;;;;;4393453;32;20081;-64
2021/09/07 06:53:37;;;;;;;1.75;1.25;;;13.70;53.80;;;;;;4380885;32;20085;-63
2021/09/07 06:56:03;;;;;;;2.62;1.80;;;13.30;56.60;;;;;;4380436;32;20097;-62
2021/09/07 06:58:29;;;;;;;1.85;1.58;;;13.00;57.00;;;;;;4406837;32;20469;-62
2021/09/07 07:00:55;;;;;;;2.25;1.35;;;13.70;55.10;;;;;;4380338;32;20115;-66
2021/09/07 07:03:22;;;;;;;2.62;1.73;;;13.40;54.60;;;;;;4404993;32;20105;-63
2021/09/07 07:05:48;;;;;;;2.83;1.35;;;13.30;54.70;;;;;;4393198;32;20106;-63
2021/09/07 07:08:14;;;;;;;1.30;1.20;;;13.00;55.40;;;;;;4392972;32;20077;-63
2021/09/07 07:10:40;;;;;;;2.78;1.55;;;13.20;55.80;;;;;;4392687;32;20106;-63
2021/09/07 07:13:09;;;;;;;2.37;1.62;;;13.20;54.10;;;;;;4405228;32;20084;-62
2021/09/07 07:15:35;;;;;;;1.25;0.95;;;13.60;53.40;;;;;;4392988;32;20098;-62
2021/09/07 07:18:01;;;;;;;2.60;1.40;;;14.00;53.00;;;;;;4393268;32;20080;-62
2021/09/07 07:20:27;;;;;;;3.05;1.15;;;13.70;53.50;;;;;;4381437;32;20078;-62
2021/09/07 07:22:53;;;;;;;2.58;1.30;;;13.80;49.60;;;;;;4380136;32;20144;-62
2021/09/07 07:25:19;;;;;;;2.10;1.02;;;14.00;46.90;;;;;;4406702;32;20170;-62
2021/09/07 07:27:46;;;;;;;2.95;1.42;;;14.00;48.40;;;;;;4406469;32;20080;-63
2021/09/07 07:30:12;;;;;;;3.78;1.75;;;13.50;52.20;;;;;;4380653;32;20086;-63
2021/09/07 07:32:38;;;;;;;4.45;1.70;;;13.00;54.60;;;;;;4380463;32;20077;-63
2021/09/07 07:35:05;;;;;;;3.65;1.33;;;12.90;55.40;;;;;;4380116;32;20089;-64
2021/09/07 07:37:31;;;;;;;2.15;1.40;;;12.90;55.90;;;;;;4380149;32;20085;-64
2021/09/07 07:39:58;;;;;;;2.75;1.45;;;13.00;55.80;;;;;;4379806;32;20238;-63
2021/09/07 07:42:24;;;;;;;1.98;1.33;;;13.40;53.90;;;;;;4380043;32;20579;-64
2021/09/07 07:44:50;;;;;;;2.20;1.30;;;14.00;53.20;;;;;;4390120;32;20132;-63
2021/09/07 07:47:16;;;;;;;3.60;1.55;;;13.90;50.30;;;;;;4366687;32;20153;-69
2021/09/07 07:49:43;;;;;;;2.47;1.35;;;13.90;49.30;;;;;;4356848;32;20063;-66
2021/09/07 07:52:09;;;;;;;1.85;1.40;;;14.00;50.10;;;;;;4367136;32;20165;-66
2021/09/07 07:54:35;;;;;;;2.12;1.50;;;13.80;50.10;;;;;;4386511;32;20065;-69
2021/09/07 07:57:02;;;;;;;2.60;1.40;;;13.70;49.70;;;;;;4367023;32;20540;-72
2021/09/07 07:59:28;;;;;;;2.22;1.17;;;14.20;49.60;;;;;;4376579;32;20507;-69
2021/09/07 08:01:55;;;;;;;1.92;1.37;;;14.50;47.80;;;;;;4393704;32;20093;-69
2021/09/07 08:04:21;;;;;;;1.67;1.05;;;13.70;48.70;;;;;;4387060;32;20097;-70
2021/09/07 08:06:48;;;;;;;2.90;1.60;;;13.90;48.10;;;;;;4396844;32;20097;-71
2021/09/07 08:09:14;;;;;;;3.78;1.55;;;14.40;47.00;;;;;;4381190;32;20549;-68
2021/09/07 08:11:41;;;;;;;4.45;1.60;;;13.80;48.90;;;;;;4390291;32;20167;-72
2021/09/07 08:14:08;;;;;;;2.42;1.17;;;13.80;48.30;;;;;;4393278;32;20070;-66
2021/09/07 08:16:34;;;;;;;2.95;1.67;;;13.70;47.40;;;;;;4356838;32;20070;-66
2021/09/07 08:19:00;;;;;;;2.62;1.12;;;13.90;47.20;;;;;;4375844;32;20540;-70
2021/09/07 08:21:28;;;;;;;2.75;1.30;;;13.80;45.90;;;;;;4386267;32;20062;-72
2021/09/07 08:23:55;;;;;;;2.35;1.45;;;14.60;45.90;;;;;;4393989;32;20085;-72
2021/09/07 08:26:22;;;;;;;4.85;2.87;;;14.90;45.30;;;;;;4373413;32;20088;-71
2021/09/07 08:28:49;;;;;;;2.70;1.52;;;14.50;44.00;;;;;;4371466;32;20081;-73
2021/09/07 08:31:15;;;;;;;2.28;1.50;;;14.40;43.20;;;;;;4370964;32;20081;-70
2021/09/07 08:33:41;;;;;;;3.90;1.52;;;14.20;46.00;;;;;;4400124;32;20062;-68
2021/09/07 08:36:08;;;;;;;2.85;1.23;;;14.10;47.60;;;;;;4381934;32;20097;-67
2021/09/07 08:38:34;;;;;;;5.50;1.70;;;13.90;49.00;;;;;;4404236;32;20541;-70
2021/09/07 08:41:00;;;;;;;1.50;1.17;;;14.60;46.80;;;;;;4396019;32;20101;-71
2021/09/07 08:43:27;;;;;;;2.22;1.40;;;14.70;43.20;;;;;;4395101;32;20069;-70
2021/09/07 08:45:54;;;;;;;2.20;0.95;;;15.00;44.80;;;;;;4402435;32;20093;-71
2021/09/07 08:48:22;;;;;;;1.70;1.42;;;15.40;44.40;;;;;;4401633;32;20066;-68
2021/09/07 08:50:49;;;;;;;3.22;1.48;;;15.20;45.20;;;;;;4378956;32;20484;-67
2021/09/07 08:53:15;;;;;;;2.62;1.70;;;14.80;44.50;;;;;;4388405;32;20088;-66
2021/09/07 08:55:41;;;;;;;3.28;1.27;;;14.50;43.10;;;;;;4369784;32;20070;-66
2021/09/07 08:58:09;;;;;;;1.95;1.33;;;14.70;43.50;;;;;;4390744;32;20097;-65
2021/09/07 09:00:35;;;;;;;1.95;1.50;;;14.00;44.30;;;;;;4406815;32;20575;-64
2021/09/07 09:03:12;;;;;;;2.25;1.27;;;14.70;44.00;;;;;;4395544;32;20158;-68
2021/09/07 09:05:48;;;;;;;2.67;1.52;;;14.70;44.70;;;;;;4384009;32;20089;-67
2021/09/07 09:08:16;;;;;;;5.50;1.62;;;14.40;45.40;;;;;;4371304;32;20078;-65
2021/09/07 09:10:46;;;;;;;2.25;1.25;;;15.00;44.90;;;;;;4381079;32;20499;-69
2021/09/07 09:13:16;;;;;;;2.10;1.30;;;15.10;42.00;;;;;;4364582;32;20086;-67
2021/09/07 09:16:09;;;;;;;2.37;1.25;;;14.70;43.20;;;;;;4373730;32;20084;-67
2021/09/07 09:18:39;;;;;;;1.37;1.23;;;14.30;44.60;;;;;;4396236;32;20150;-64
2021/09/07 09:21:28;;;;;;;3.40;1.55;;;14.50;45.60;;;;;;4386621;32;20145;-67
2021/09/07 09:24:20;;;;;;;3.20;1.33;;;15.10;44.10;;;;;;4383031;32;20100;-71
2021/09/07 09:27:04;;;;;;;3.42;1.62;;;14.90;43.10;;;;;;4391947;32;20674;-68
2021/09/07 09:29:35;;;;;;;3.42;1.73;;;14.70;42.50;;;;;;4380194;32;20072;-67
2021/09/07 09:32:07;;;;;;;2.22;1.75;;;14.40;44.80;;;;;;4379105;32;20162;-67
2021/09/07 09:34:36;;;;;;;5.30;2.05;;;14.00;48.10;;;;;;4382314;32;20121;-66
2021/09/07 09:37:13;;;;;;;5.25;2.58;;;13.70;51.20;;;;;;4386332;32;20061;-65
2021/09/07 09:39:47;;;;;;;2.12;1.48;;;13.70;51.90;;;;;;4394448;32;20070;-67
2021/09/07 09:42:15;;;;;;;3.90;1.87;;;13.70;49.80;;;;;;4380002;32;20070;-66
2021/09/07 09:44:41;;;;;;;3.62;2.20;;;14.00;50.40;;;;;;4395209;32;20078;-67
2021/09/07 09:47:08;;;;;;;3.40;2.03;;;14.20;49.20;;;;;;4394661;32;20097;-72
2021/09/07 09:49:34;;;;;;;2.50;1.67;;;14.00;50.60;;;;;;4372914;32;20154;-70
2021/09/07 09:52:06;;;;;;;2.78;1.70;;;14.20;49.80;;;;;;4384383;32;20128;-68
2021/09/07 09:54:33;;;;;;;4.47;2.30;;;14.40;49.50;;;;;;4395558;32;20511;-66
2021/09/07 09:57:01;;;;;;;3.85;1.80;;;14.60;48.20;;;;;;4378098;32;20091;-72
2021/09/07 09:59:28;;;;;;;3.55;1.87;;;14.30;48.40;;;;;;4374125;32;20116;-74
2021/09/07 10:01:59;;;;;;;3.85;2.20;;;14.40;48.60;;;;;;4382548;32;20082;-74
2021/09/07 10:04:27;;;;;;;3.03;2.00;;;14.40;48.60;;;;;;4373957;32;20093;-71
2021/09/07 10:06:54;;;;;;;4.43;1.98;;;14.40;49.20;;;;;;4367205;32;20093;-71
2021/09/07 10:09:23;;;;;;;5.62;1.85;;;14.60;48.20;;;;;;4361553;32;20128;-72
2021/09/07 10:11:53;;;;;;;2.22;1.30;;;14.40;46.30;;;;;;4371176;32;20066;-68
2021/09/07 10:17:28;;;;;;;3.28;1.70;;;14.10;46.10;;;;;;3819165;37;20062;-71
2021/09/07 10:20:37;;;;;;;2.60;1.20;;;14.40;44.10;;;;;;4376870;32;20073;-72
2021/09/07 10:23:26;;;;;;;2.92;1.30;;;14.40;43.00;;;;;;4388001;32;20089;-74
2021/09/07 10:26:00;;;;;;;1.62;1.20;;;14.40;42.40;;;;;;4362966;32;20074;-70
2021/09/07 10:28:34;;;;;;;3.10;1.12;;;14.30;42.20;;;;;;4345512;32;20143;-70
2021/09/07 10:31:09;;;;;;;2.67;1.60;;;14.30;42.70;;;;;;4382560;32;20065;-68
2021/09/07 10:36:25;;;;;;;1.50;1.10;;;15.40;41.20;;;;;;3818938;37;20059;-67
2021/09/07 10:38:56;;;;;;;4.53;1.45;;;14.90;41.90;;;;;;4351177;32;20101;-71
2021/09/07 10:41:35;;;;;;;5.57;2.42;;;14.40;42.70;;;;;;4360245;32;20096;-68
2021/09/07 10:44:17;;;;;;;3.25;1.67;;;14.40;43.50;;;;;;4404195;32;20503;-69
2021/09/07 10:46:55;;;;;;;3.08;1.52;;;14.30;43.00;;;;;;4380171;32;20069;-70
2021/09/07 10:49:36;;;;;;;1.73;1.20;;;14.80;41.90;;;;;;4369622;32;20488;-66
2021/09/07 10:52:18;;;;;;;2.42;1.50;;;15.10;40.10;;;;;;4392612;32;20097;-72
2021/09/07 10:54:53;;;;;;;1.75;1.25;;;15.30;39.10;;;;;;4363172;32;20217;-73
2021/09/07 10:57:35;;;;;;;2.08;1.42;;;15.30;36.60;;;;;;4372786;32;20146;-73
2021/09/07 11:00:16;;;;;;;1.48;1.33;;;15.00;37.50;;;;;;4374437;32;20140;-73
2021/09/07 11:02:43;;;;;;;2.30;1.37;;;15.50;36.60;;;;;;4373521;32;20064;-73
2021/09/07 11:05:11;;;;;;;3.55;1.40;;;15.40;37.30;;;;;;4345999;32;20070;-71
2021/09/07 11:07:45;;;;;;;3.25;1.90;;;15.20;37.50;;;;;;4337426;32;20062;-71
2021/09/07 11:10:14;;;;;;;3.75;1.25;;;15.40;37.20;;;;;;4348489;32;20186;-69
2021/09/07 11:12:56;;;;;;;2.20;1.40;;;15.90;37.20;;;;;;4367105;32;20580;-64
2021/09/07 11:15:26;;;;;;;2.15;1.55;;;16.40;36.70;;;;;;4333009;32;20105;-65
2021/09/07 11:18:07;;;;;;;2.62;1.42;;;16.10;36.60;;;;;;4332542;32;20171;-65
2021/09/07 11:20:38;;;;;;;1.77;1.37;;;15.70;38.10;;;;;;4338810;32;20085;-67
2021/09/07 11:23:12;;;;;;;2.40;1.15;;;15.40;39.00;;;;;;4347065;32;20520;-66
2021/09/07 11:25:46;;;;;;;1.95;1.30;;;14.90;40.40;;;;;;4335081;32;20476;-65
2021/09/07 11:28:13;;;;;;;2.12;1.30;;;15.00;40.90;;;;;;4346431;32;20121;-66
2021/09/07 11:30:40;;;;;;;1.90;1.33;;;15.10;37.60;;;;;;4348979;32;20073;-66
2021/09/07 11:33:18;;;;;;;2.42;1.60;;;15.20;36.50;;;;;;4375593;32;20085;-64
2021/09/07 11:35:55;;;;;;;3.08;1.90;;;15.50;36.40;;;;;;4352219;32;20093;-65
2021/09/07 11:38:28;;;;;;;2.40;1.37;;;15.60;37.90;;;;;;4362982;32;20112;-65
2021/09/07 11:40:57;;;;;;;1.48;1.23;;;15.70;37.00;;;;;;4350996;32;20094;-65
2021/09/07 11:43:39;;;;;;;1.75;1.20;;;15.90;37.30;;;;;;4350366;32;20089;-67
2021/09/07 11:46:19;;;;;;;1.37;1.17;;;14.80;39.50;;;;;;4385383;32;20059;-65
2021/09/07 11:48:48;;;;;;;1.65;0.93;;;14.80;40.60;;;;;;4325631;32;20155;-64
2021/09/07 11:51:21;;;;;;;2.08;1.20;;;14.60;40.00;;;;;;4337905;32;20078;-65
2021/09/07 11:54:18;;;;;;;2.30;1.25;;;15.30;39.00;;;;;;3847458;37;20480;-64
2021/09/07 11:56:55;;;;;;;1.83;1.50;;;15.50;38.30;;;;;;4376476;32;20158;-64
2021/09/07 11:59:21;;;;;;;3.60;1.27;;;15.20;39.20;;;;;;4390929;32;20484;-73
2021/09/07 12:01:49;;;;;;;2.22;1.27;;;15.20;37.20;;;;;;4383509;32;20164;-73
2021/09/07 12:04:17;;;;;;;2.47;1.35;;;15.40;37.10;;;;;;4386120;32;20509;-72
2021/09/07 12:06:53;;;;;;;2.80;1.33;;;15.10;36.20;;;;;;4376590;32;20078;-68
2021/09/07 12:09:36;;;;;;;3.90;1.95;;;15.10;36.70;;;;;;4375023;32;20245;-72
2021/09/07 12:12:12;;;;;;;3.65;1.35;;;15.00;36.90;;;;;;4396520;32;20157;-68
2021/09/07 12:14:47;;;;;;;3.47;1.48;;;15.00;37.90;;;;;;4407200;32;20406;-69
2021/09/07 12:17:16;;;;;;;1.98;1.35;;;15.30;38.50;;;;;;4346947;32;20463;-70
2021/09/07 12:19:50;;;;;;;2.80;1.58;;;15.20;38.10;;;;;;4359607;32;20188;-70
2021/09/07 12:22:23;;;;;;;3.58;1.55;;;15.20;38.10;;;;;;4387616;32;20181;-68
2021/09/07 12:25:12;;;;;;;1.80;1.30;;;15.00;38.40;;;;;;4396247;32;20157;-70
2021/09/07 12:27:58;;;;;;;2.05;1.67;;;14.90;38.00;;;;;;4388545;32;20077;-72
2021/09/07 12:30:27;;;;;;;3.85;1.60;;;15.20;38.90;;;;;;4401034;32;20074;-71
2021/09/07 12:33:02;;;;;;;2.30;1.23;;;15.20;38.20;;;;;;4400147;32;20104;-73
2021/09/07 12:36:02;;;;;;;1.80;1.25;;;14.90;38.50;;;;;;4372202;32;20095;-70
2021/09/07 12:38:29;;;;;;;1.73;1.62;;;14.90;39.00;;;;;;4387477;32;20063;-72
2021/09/07 12:41:06;;;;;;;2.70;1.30;;;14.80;38.20;;;;;;4375552;32;20069;-68
2021/09/07 12:43:35;;;;;;;1.95;1.33;;;14.80;38.20;;;;;;4380257;32;20088;-68
2021/09/07 12:46:08;;;;;;;1.30;1.12;;;15.00;38.70;;;;;;4371439;32;20497;-75
2021/09/07 12:48:35;;;;;;;1.73;1.12;;;14.80;38.30;;;;;;4365303;32;20128;-71
2021/09/07 12:51:02;;;;;;;2.45;1.45;;;14.80;38.90;;;;;;4374840;32;20129;-70
2021/09/07 12:53:35;;;;;;;2.87;1.40;;;14.90;38.70;;;;;;4387221;32;20107;-70
2021/09/07 12:56:02;;;;;;;3.00;1.65;;;14.90;39.00;;;;;;4352267;32;20129;-69
2021/09/07 12:58:29;;;;;;;2.85;1.50;;;14.80;38.60;;;;;;4385665;32;20452;-66
2021/09/07 13:00:56;;;;;;;2.45;1.48;;;15.00;41.10;;;;;;4372515;32;20097;-72
2021/09/07 13:03:23;;;;;;;4.55;2.00;;;14.80;39.00;;;;;;4386575;32;20081;-74